createdAt,value
2018-11-05T00:01:57.532Z,98027.50
2018-11-05T00:04:25.990Z,98027.11
2018-11-05T00:06:54.459Z,98021.05
2018-11-05T00:09:22.934Z,98015.56
2018-11-05T00:11:51.443Z,98018.52
2018-11-05T00:14:19.976Z,98024.20
2018-11-05T00:16:48.513Z,98026.87
2018-11-05T00:19:16.995Z,98025.81
2018-11-05T00:21:45.475Z,98017.95
2018-11-05T00:24:14.277Z,98029.17
2018-11-05T00:26:42.777Z,98023.16
2018-11-05T00:29:11.286Z,98017.93
2018-11-05T00:31:39.781Z,98016.73
2018-11-05T00:34:08.266Z,98018.05
2018-11-05T00:36:36.721Z,98020.98
2018-11-05T00:39:08.270Z,98024.31
2018-11-05T00:41:37.608Z,98025.81
2018-11-05T00:44:06.809Z,98012.30
2018-11-05T00:46:35.497Z,98005.41
2018-11-05T00:49:04.388Z,98001.02
2018-11-05T00:51:33.284Z,98007.39
2018-11-05T00:54:01.787Z,97994.19
2018-11-05T00:56:30.333Z,98006.32
2018-11-05T00:58:58.944Z,98012.60
2018-11-05T01:01:28.280Z,98007.76
2018-11-05T01:03:56.759Z,97996.27
2018-11-05T01:06:25.495Z,98003.59
2018-11-05T01:08:53.974Z,97998.46
2018-11-05T01:11:22.453Z,97996.13
2018-11-05T01:13:50.968Z,98001.86
2018-11-05T01:16:19.422Z,98000.09
2018-11-05T01:18:47.936Z,97994.03
2018-11-05T01:21:16.391Z,98000.52
2018-11-05T01:23:44.907Z,98003.39
2018-11-05T01:26:13.403Z,97996.90
2018-11-05T01:28:41.883Z,97988.02
2018-11-05T01:31:10.348Z,97986.52
2018-11-05T01:33:39.063Z,97981.81
2018-11-05T01:36:07.556Z,97970.05
2018-11-05T01:38:36.194Z,97957.73
2018-11-05T01:41:04.715Z,97957.44
2018-11-05T01:43:33.207Z,97967.63
2018-11-05T01:46:01.648Z,97955.06
2018-11-05T01:48:30.117Z,97952.01
2018-11-05T01:50:58.768Z,97949.65
2018-11-05T01:53:27.259Z,97950.34
2018-11-05T01:55:55.746Z,97946.86
2018-11-05T01:58:24.272Z,97957.81
2018-11-05T02:00:52.759Z,97951.64
2018-11-05T02:03:21.284Z,97953.03
2018-11-05T02:05:50.004Z,97955.73
2018-11-05T02:08:18.559Z,97954.53
2018-11-05T02:10:47.072Z,97954.53
2018-11-05T02:13:15.568Z,97955.36
2018-11-05T02:15:44.079Z,97954.01
2018-11-05T02:18:12.571Z,97959.47
2018-11-05T02:20:41.064Z,97953.52
2018-11-05T02:23:09.529Z,97945.78
2018-11-05T02:25:38.015Z,97944.05
2018-11-05T02:28:07.158Z,97933.48
2018-11-05T02:30:35.852Z,97931.30
2018-11-05T02:33:04.371Z,97938.69
2018-11-05T02:35:32.904Z,97936.63
2018-11-05T02:38:01.380Z,97937.32
2018-11-05T02:40:29.891Z,97939.44
2018-11-05T02:42:58.414Z,97935.33
2018-11-05T02:45:27.188Z,97939.57
2018-11-05T02:47:55.648Z,97938.66
2018-11-05T02:50:24.279Z,97936.55
2018-11-05T02:52:52.802Z,97935.63
2018-11-05T02:55:21.277Z,97935.76
2018-11-05T02:57:49.732Z,97929.78
2018-11-05T03:00:19.392Z,97924.23
2018-11-05T03:02:48.183Z,97930.34
2018-11-05T03:05:18.797Z,97929.25
2018-11-05T03:07:48.346Z,97935.41
2018-11-05T03:10:17.204Z,97934.67
2018-11-05T03:12:46.698Z,97947.00
2018-11-05T03:15:16.535Z,97940.28
2018-11-05T03:17:45.008Z,97926.41
2018-11-05T03:20:14.603Z,97929.83
2018-11-05T03:22:43.619Z,97933.66
2018-11-05T03:25:12.155Z,97931.05
2018-11-05T03:27:41.272Z,97926.62
2018-11-05T03:30:11.735Z,97931.96
2018-11-05T03:32:40.534Z,97931.47
2018-11-05T03:35:10.332Z,97931.53
2018-11-05T03:37:39.437Z,97938.55
2018-11-05T03:40:09.362Z,97929.34
2018-11-05T03:42:38.786Z,97921.30
2018-11-05T03:45:08.761Z,97916.62
2018-11-05T03:47:37.235Z,97921.36
2018-11-05T03:50:07.944Z,97915.69
2018-11-05T03:52:36.788Z,97924.13
2018-11-05T03:55:06.061Z,97914.46
2018-11-05T03:57:34.520Z,97920.33
2018-11-05T04:00:03.100Z,97918.12
2018-11-05T04:02:31.900Z,97926.83
2018-11-05T04:05:00.337Z,97928.44
2018-11-05T04:07:29.312Z,97924.89
2018-11-05T04:09:57.892Z,97928.13
2018-11-05T04:15:25.412Z,97929.88
2018-11-05T04:17:53.947Z,97930.61
2018-11-05T04:20:22.481Z,97936.94
2018-11-05T04:22:50.980Z,97932.23
2018-11-05T04:25:19.410Z,97927.84
2018-11-05T04:27:48.037Z,97927.66
2018-11-05T04:30:16.917Z,97930.41
2018-11-05T04:32:45.391Z,97934.01
2018-11-05T04:35:14.329Z,97929.77
2018-11-05T04:37:43.193Z,97929.05
2018-11-05T04:40:12.167Z,97924.28
2018-11-05T04:42:41.015Z,97920.75
2018-11-05T04:45:11.397Z,97921.05
2018-11-05T04:47:40.021Z,97923.83
2018-11-05T04:50:10.350Z,97923.95
2018-11-05T04:52:39.736Z,97925.04
2018-11-05T04:55:08.497Z,97922.74
2018-11-05T04:57:37.427Z,97932.27
2018-11-05T05:00:12.117Z,97935.87
2018-11-05T05:02:41.660Z,97944.58
2018-11-05T05:05:11.227Z,97941.06
2018-11-05T05:07:39.691Z,97936.17
2018-11-05T05:10:09.138Z,97936.41
2018-11-05T05:12:38.664Z,97931.80
2018-11-05T05:15:07.580Z,97937.71
2018-11-05T05:17:36.157Z,97934.55
2018-11-05T05:20:06.393Z,97932.32
2018-11-05T05:22:34.946Z,97934.77
2018-11-05T05:25:03.417Z,97933.00
2018-11-05T05:27:31.897Z,97927.96
2018-11-05T05:30:00.379Z,97931.73
2018-11-05T05:32:28.885Z,97929.61
2018-11-05T05:34:57.387Z,97935.33
2018-11-05T05:37:25.877Z,97934.64
2018-11-05T05:39:54.378Z,97922.64
2018-11-05T05:42:22.914Z,97938.91
2018-11-05T05:44:51.443Z,97940.60
2018-11-05T05:47:19.947Z,97929.04
2018-11-05T05:49:48.477Z,97927.75
2018-11-05T05:52:16.971Z,97928.80
2018-11-05T05:54:45.473Z,97938.26
2018-11-05T05:57:14.033Z,97945.64
2018-11-05T05:59:42.721Z,97942.51
2018-11-05T06:02:11.394Z,97948.45
2018-11-05T06:04:40.320Z,97949.55
2018-11-05T06:07:09.029Z,97955.39
2018-11-05T06:09:37.512Z,97949.47
2018-11-05T06:12:06.808Z,97957.66
2018-11-05T06:14:35.510Z,97960.98
2018-11-05T06:17:04.060Z,97957.80
2018-11-05T06:19:32.537Z,97972.72
2018-11-05T06:22:01.122Z,97969.07
2018-11-05T06:24:29.882Z,97968.81
2018-11-05T06:26:58.392Z,97975.47
2018-11-05T06:29:26.877Z,97977.45
2018-11-05T06:31:55.389Z,97983.05
2018-11-05T06:34:23.866Z,97976.25
2018-11-05T06:36:52.347Z,97967.55
2018-11-05T06:39:21.111Z,97983.50
2018-11-05T06:41:49.628Z,97974.21
2018-11-05T06:44:18.172Z,97973.76
2018-11-05T06:46:46.696Z,97986.83
2018-11-05T06:49:15.234Z,97990.17
2018-11-05T06:51:43.731Z,97977.70
2018-11-05T06:54:12.469Z,97975.64
2018-11-05T06:56:40.928Z,97987.77
2018-11-05T06:59:09.418Z,97988.16
2018-11-05T07:01:38.078Z,97991.48
2018-11-05T07:04:06.775Z,97989.25
2018-11-05T07:06:35.268Z,97990.84
2018-11-05T07:09:05.450Z,97986.02
2018-11-05T07:11:34.048Z,97988.33
2018-11-05T07:14:02.429Z,97996.10
2018-11-05T07:16:30.902Z,97996.10
2018-11-05T07:18:59.593Z,97996.28
2018-11-05T07:21:27.863Z,98004.77
2018-11-05T07:23:56.341Z,98006.83
2018-11-05T07:26:24.848Z,98007.55
2018-11-05T07:28:53.372Z,98010.31
2018-11-05T07:31:21.854Z,98011.91
2018-11-05T07:33:50.709Z,98015.99
2018-11-05T07:36:19.648Z,98006.92
2018-11-05T07:38:48.139Z,98006.70
2018-11-05T07:41:16.652Z,98000.88
2018-11-05T07:43:45.157Z,97998.27
2018-11-05T07:46:13.659Z,97995.19
2018-11-05T07:48:42.202Z,98004.16
2018-11-05T07:51:10.671Z,98001.10
2018-11-05T07:53:39.189Z,98005.34
2018-11-05T07:56:08.085Z,97996.94
2018-11-05T07:58:36.502Z,97998.44
2018-11-05T08:01:05.760Z,97991.68
2018-11-05T08:03:34.230Z,97992.92
2018-11-05T08:06:02.682Z,97992.23
2018-11-05T08:08:31.682Z,97985.11
2018-11-05T08:11:00.446Z,97984.48
2018-11-05T08:13:28.935Z,97986.26
2018-11-05T08:15:57.455Z,97991.13
2018-11-05T08:18:26.184Z,97984.77
2018-11-05T08:20:54.664Z,97985.84
2018-11-05T08:23:23.138Z,97990.62
2018-11-05T08:25:51.658Z,97978.41
2018-11-05T08:28:20.136Z,97985.94
2018-11-05T08:30:48.652Z,97975.77
2018-11-05T08:33:17.342Z,97972.95
2018-11-05T08:35:45.793Z,97979.41
2018-11-05T08:38:14.475Z,97972.42
2018-11-05T08:40:42.994Z,97983.59
2018-11-05T08:43:11.497Z,97985.26
2018-11-05T08:45:39.984Z,97978.69
2018-11-05T08:48:08.593Z,97977.27
2018-11-05T08:50:37.101Z,97979.25
2018-11-05T08:53:05.633Z,97976.57
2018-11-05T08:55:34.124Z,97976.63
2018-11-05T08:58:02.597Z,97970.27
2018-11-05T09:00:36.245Z,97969.77
2018-11-05T09:03:05.368Z,97976.25
2018-11-05T09:05:33.900Z,97968.44
2018-11-05T09:08:02.383Z,97964.81
2018-11-05T09:10:31.047Z,97968.81
2018-11-05T09:12:59.364Z,97967.28
2018-11-05T09:15:27.841Z,97955.44
2018-11-05T09:17:56.336Z,97959.30
2018-11-05T09:20:24.946Z,97955.38
2018-11-05T09:22:54.068Z,97948.73
2018-11-05T09:25:22.583Z,97943.02
2018-11-05T09:27:51.202Z,97947.52
2018-11-05T09:30:21.045Z,97948.09
2018-11-05T09:32:49.537Z,97947.92
2018-11-05T09:35:18.524Z,97946.03
2018-11-05T09:37:47.228Z,97941.09
2018-11-05T09:40:17.880Z,97949.70
2018-11-05T09:42:46.956Z,97946.57
2018-11-05T09:45:21.924Z,97934.78
2018-11-05T09:47:50.937Z,97947.14
2018-11-05T09:50:20.007Z,97937.13
2018-11-05T09:52:48.463Z,97923.85
2018-11-05T09:55:17.276Z,97930.45
2018-11-05T09:57:45.735Z,97924.02
2018-11-05T10:00:17.360Z,97938.08
2018-11-05T10:02:51.110Z,97928.19
2018-11-05T10:05:19.617Z,97931.66
2018-11-05T10:07:48.316Z,97924.31
2018-11-05T10:10:17.685Z,97928.11
2018-11-05T10:12:46.132Z,97924.42
2018-11-05T10:15:15.870Z,97923.15
2018-11-05T10:17:44.640Z,97925.09
2018-11-05T10:20:21.055Z,97919.54
2018-11-05T10:22:50.004Z,97913.69
2018-11-05T10:25:30.087Z,97914.12
2018-11-05T10:28:03.859Z,97901.59
2018-11-05T10:30:33.241Z,97904.77
2018-11-05T10:33:02.389Z,97903.80
2018-11-05T10:35:36.323Z,97893.42
2018-11-05T10:38:05.192Z,97889.33
2018-11-05T10:40:33.764Z,97890.45
2018-11-05T10:43:02.174Z,97895.34
2018-11-05T10:45:30.660Z,97888.92
2018-11-05T10:47:59.107Z,97885.57
2018-11-05T10:50:27.590Z,97880.11
2018-11-05T10:52:56.089Z,97867.04
2018-11-05T10:58:07.533Z,97874.72
2018-11-05T11:00:41.420Z,97870.16
2018-11-05T11:03:18.832Z,97874.67
2018-11-05T11:05:47.623Z,97872.82
2018-11-05T11:08:16.598Z,97880.29
2018-11-05T11:10:45.467Z,97877.95
2018-11-05T11:13:14.292Z,97876.73
2018-11-05T11:15:43.043Z,97879.30
2018-11-05T11:18:11.512Z,97874.50
2018-11-05T11:20:40.054Z,97868.61
2018-11-05T11:23:08.502Z,97876.23
2018-11-05T11:25:37.009Z,97864.27
2018-11-05T11:28:06.111Z,97859.10
2018-11-05T11:30:34.527Z,97854.56
2018-11-05T11:33:02.988Z,97863.67
2018-11-05T11:35:31.589Z,97858.61
2018-11-05T11:38:00.076Z,97862.86
2018-11-05T11:40:28.612Z,97859.58
2018-11-05T11:42:57.051Z,97848.38
2018-11-05T11:45:25.912Z,97853.78
2018-11-05T11:47:54.735Z,97846.06
2018-11-05T11:50:23.388Z,97838.25
2018-11-05T11:52:52.356Z,97836.21
2018-11-05T11:55:21.946Z,97839.06
2018-11-05T11:57:50.466Z,97834.53
2018-11-05T12:00:22.056Z,97826.58
2018-11-05T12:02:51.446Z,97816.68
2018-11-05T12:05:20.272Z,97818.98
2018-11-05T12:07:49.669Z,97810.20
2018-11-05T12:10:20.910Z,97806.31
2018-11-05T12:12:49.414Z,97796.77
2018-11-05T12:15:18.859Z,97793.58
2018-11-05T12:17:48.392Z,97799.13
2018-11-05T12:20:18.351Z,97792.64
2018-11-05T12:22:47.565Z,97794.17
2018-11-05T12:25:16.060Z,97787.41
2018-11-05T12:27:44.816Z,97780.69
2018-11-05T12:30:15.864Z,97777.89
2018-11-05T12:32:45.431Z,97766.81
2018-11-05T12:35:14.461Z,97776.69
2018-11-05T12:37:44.826Z,97771.22
2018-11-05T12:40:14.952Z,97762.86
2018-11-05T12:42:44.888Z,97767.02
2018-11-05T12:45:13.360Z,97766.45
2018-11-05T12:47:41.867Z,97762.09
2018-11-05T12:50:14.453Z,97760.63
2018-11-05T12:52:43.729Z,97763.26
2018-11-05T12:55:12.283Z,97760.25
2018-11-05T12:57:41.153Z,97753.30
2018-11-05T13:00:13.344Z,97752.77
2018-11-05T13:02:41.800Z,97754.76
2018-11-05T13:05:11.948Z,97746.61
2018-11-05T13:07:40.754Z,97743.36
2018-11-05T13:10:11.484Z,97752.60
2018-11-05T13:12:40.401Z,97750.08
2018-11-05T13:15:09.799Z,97752.60
2018-11-05T13:17:39.111Z,97756.82
2018-11-05T13:20:09.968Z,97749.07
2018-11-05T13:22:38.805Z,97751.47
2018-11-05T13:25:07.356Z,97750.56
2018-11-05T13:27:35.859Z,97746.28
2018-11-05T13:30:05.339Z,97755.47
2018-11-05T13:32:34.199Z,97753.86
2018-11-05T13:35:02.964Z,97755.86
2018-11-05T13:37:32.139Z,97761.59
2018-11-05T13:40:00.736Z,97765.28
2018-11-05T13:42:29.288Z,97762.74
2018-11-05T13:44:57.801Z,97768.42
2018-11-05T13:47:26.963Z,97758.38
2018-11-05T13:49:55.238Z,97763.10
2018-11-05T13:52:23.568Z,97766.98
2018-11-05T13:54:52.194Z,97767.63
2018-11-05T13:57:20.567Z,97767.19
2018-11-05T13:59:49.121Z,97770.84
2018-11-05T14:02:17.983Z,97768.31
2018-11-05T14:04:46.584Z,97768.48
2018-11-05T14:07:15.486Z,97771.51
2018-11-05T14:09:44.352Z,97774.28
2018-11-05T14:12:13.271Z,97769.25
2018-11-05T14:14:41.935Z,97770.42
2018-11-05T14:17:10.708Z,97783.41
2018-11-05T14:19:39.175Z,97787.10
2018-11-05T14:22:07.895Z,97788.38
2018-11-05T14:24:36.643Z,97791.05
2018-11-05T14:27:05.534Z,97787.33
2018-11-05T14:29:34.808Z,97777.28
2018-11-05T14:32:02.600Z,97778.69
2018-11-05T14:34:31.094Z,97783.92
2018-11-05T14:36:59.595Z,97777.67
2018-11-05T14:39:27.978Z,97768.41
2018-11-05T14:41:56.511Z,97773.27
2018-11-05T14:44:25.371Z,97763.94
2018-11-05T14:46:53.844Z,97756.53
2018-11-05T14:49:22.628Z,97757.50
2018-11-05T14:51:52.086Z,97747.14
2018-11-05T14:54:20.531Z,97761.04
2018-11-05T14:56:49.236Z,97765.09
2018-11-05T14:59:17.728Z,97779.81
2018-11-05T15:01:46.555Z,97772.02
2018-11-05T15:04:15.795Z,97770.11
2018-11-05T15:06:44.424Z,97774.00
2018-11-05T15:09:13.760Z,97780.33
2018-11-05T15:11:42.393Z,97802.05
2018-11-05T15:14:11.101Z,97798.49
2018-11-05T15:16:39.589Z,97796.16
2018-11-05T15:19:08.305Z,97791.16
2018-11-05T15:21:36.817Z,97778.48
2018-11-05T15:24:05.589Z,97777.48
2018-11-05T15:26:34.167Z,97782.56
2018-11-05T15:29:02.630Z,97788.08
2018-11-05T15:31:31.104Z,97782.21
2018-11-05T15:33:59.905Z,97784.17
2018-11-05T15:36:28.313Z,97786.55
2018-11-05T15:38:57.136Z,97791.14
2018-11-05T15:41:26.206Z,97799.45
2018-11-05T15:43:55.040Z,97806.55
2018-11-05T15:46:23.551Z,97818.98
2018-11-05T15:48:52.116Z,97808.98
2018-11-05T15:51:21.104Z,97812.77
2018-11-05T15:53:49.540Z,97820.96
2018-11-05T15:56:17.961Z,97821.87
2018-11-05T15:58:46.539Z,97820.60
2018-11-05T16:01:15.095Z,97811.74
2018-11-05T16:03:43.628Z,97813.30
2018-11-05T16:06:12.152Z,97821.23
2018-11-05T16:08:40.793Z,97827.73
2018-11-05T16:11:09.514Z,97831.73
2018-11-05T16:13:38.341Z,97822.82
2018-11-05T16:16:07.033Z,97831.97
2018-11-05T16:18:35.530Z,97832.59
2018-11-05T16:21:03.964Z,97833.64
2018-11-05T16:23:32.498Z,97825.22
2018-11-05T16:26:01.348Z,97820.87
2018-11-05T16:28:30.025Z,97802.41
2018-11-05T16:30:58.517Z,97803.47
2018-11-05T16:33:27.003Z,97796.78
2018-11-05T16:35:55.448Z,97814.12
2018-11-05T16:38:23.999Z,97826.72
2018-11-05T16:40:52.580Z,97823.41
2018-11-05T16:43:21.146Z,97825.75
2018-11-05T16:45:49.765Z,97820.24
2018-11-05T16:48:18.188Z,97817.75
2018-11-05T16:50:46.711Z,97815.41
2018-11-05T16:53:15.184Z,97807.27
2018-11-05T16:55:43.683Z,97816.10
2018-11-05T16:58:12.253Z,97818.11
2018-11-05T17:00:41.311Z,97819.72
2018-11-05T17:03:10.543Z,97828.71
2018-11-05T17:05:39.193Z,97829.71
2018-11-05T17:08:07.818Z,97832.41
2018-11-05T17:10:37.296Z,97841.02
2018-11-05T17:13:06.377Z,97835.56
2018-11-05T17:15:34.821Z,97842.39
2018-11-05T17:18:03.388Z,97837.20
2018-11-05T17:20:31.873Z,97837.63
2018-11-05T17:23:00.416Z,97848.80
2018-11-05T17:25:28.994Z,97839.17
2018-11-05T17:27:57.695Z,97837.91
2018-11-05T17:30:26.772Z,97832.05
2018-11-05T17:32:55.516Z,97836.17
2018-11-05T17:35:24.007Z,97844.08
2018-11-05T17:37:52.511Z,97845.72
2018-11-05T17:40:22.412Z,97835.64
2018-11-05T17:42:50.933Z,97831.55
2018-11-05T17:45:20.264Z,97818.38
2018-11-05T17:47:49.235Z,97816.59
2018-11-05T17:50:19.473Z,97819.69
2018-11-05T17:52:47.979Z,97821.86
2018-11-05T17:55:16.556Z,97820.60
2018-11-05T17:57:46.241Z,97816.75
2018-11-05T18:00:16.674Z,97810.75
2018-11-05T18:02:45.148Z,97812.11
2018-11-05T18:05:14.456Z,97811.08
2018-11-05T18:07:43.284Z,97803.41
2018-11-05T18:10:11.802Z,97805.41
2018-11-05T18:12:40.641Z,97800.41
2018-11-05T18:15:10.743Z,97799.27
2018-11-05T18:17:40.283Z,97796.44
2018-11-05T18:20:10.276Z,97779.11
2018-11-05T18:22:39.173Z,97783.77
2018-11-05T18:25:10.315Z,97785.88
2018-11-05T18:27:39.120Z,97800.77
2018-11-05T18:30:08.706Z,97813.09
2018-11-05T18:32:37.311Z,97822.00
2018-11-05T18:35:07.606Z,97831.15
2018-11-05T18:37:36.539Z,97831.82
2018-11-05T18:40:07.275Z,97829.55
2018-11-05T18:42:36.066Z,97825.54
2018-11-05T18:45:04.639Z,97830.88
2018-11-05T18:47:33.228Z,97845.73
2018-11-05T18:50:01.741Z,97839.66
2018-11-05T18:52:30.235Z,97839.66
2018-11-05T18:54:58.716Z,97845.61
2018-11-05T18:59:54.640Z,97850.16
2018-11-05T19:02:29.451Z,97852.23
2018-11-05T19:04:58.258Z,97851.04
2018-11-05T19:07:26.907Z,97844.73
2018-11-05T19:09:55.624Z,97831.23
2018-11-05T19:12:24.123Z,97845.67
2018-11-05T19:14:53.228Z,97842.02
2018-11-05T19:17:21.922Z,97840.02
2018-11-05T19:19:50.358Z,97839.05
2018-11-05T19:22:19.231Z,97844.98
2018-11-05T19:24:47.680Z,97847.00
2018-11-05T19:27:16.395Z,97835.55
2018-11-05T19:29:44.949Z,97844.89
2018-11-05T19:32:13.436Z,97842.89
2018-11-05T19:34:41.969Z,97833.00
2018-11-05T19:37:11.136Z,97835.41
2018-11-05T19:39:39.683Z,97839.40
2018-11-05T19:42:08.470Z,97841.05
2018-11-05T19:44:36.906Z,97839.08
2018-11-05T19:47:05.473Z,97847.05
2018-11-05T19:49:34.031Z,97850.50
2018-11-05T19:52:02.855Z,97850.70
2018-11-05T19:54:31.285Z,97850.72
2018-11-05T19:56:59.733Z,97850.55
2018-11-05T19:59:28.428Z,97847.55
2018-11-05T20:01:57.205Z,97849.40
2018-11-05T20:04:25.684Z,97837.06
2018-11-05T20:06:54.245Z,97851.69
2018-11-05T20:09:22.738Z,97850.02
2018-11-05T20:11:51.209Z,97847.72
2018-11-05T20:14:19.759Z,97851.55
2018-11-05T20:16:48.316Z,97854.06
2018-11-05T20:22:15.712Z,97857.63
2018-11-05T20:24:44.149Z,97848.38
2018-11-05T20:27:12.733Z,97848.72
2018-11-05T20:29:41.556Z,97847.84
2018-11-05T20:32:10.469Z,97849.38
2018-11-05T20:34:38.859Z,97851.39
2018-11-05T20:37:07.330Z,97847.70
2018-11-05T20:39:35.795Z,97851.98
2018-11-05T20:42:04.331Z,97852.21
2018-11-05T20:44:32.867Z,97863.01
2018-11-05T20:47:01.367Z,97859.31
2018-11-05T20:49:44.614Z,97855.97
2018-11-05T20:52:13.117Z,97858.21
2018-11-05T20:54:41.596Z,97854.02
2018-11-05T20:57:10.074Z,97845.83
2018-11-05T20:59:38.680Z,97853.16
2018-11-05T21:02:07.437Z,97847.06
2018-11-05T21:04:35.936Z,97843.86
2018-11-05T21:07:04.483Z,97844.01
2018-11-05T21:09:32.953Z,97842.77
2018-11-05T21:12:01.439Z,97809.84
2018-11-05T21:14:30.030Z,97840.60
2018-11-05T21:16:58.779Z,97841.98
2018-11-05T21:19:27.448Z,97845.68
2018-11-05T21:21:56.132Z,97853.31
2018-11-05T21:24:25.810Z,97855.48
2018-11-05T21:26:54.965Z,97860.95
2018-11-05T21:29:23.641Z,97850.94
2018-11-05T21:31:52.215Z,97849.34
2018-11-05T21:34:20.721Z,97839.88
2018-11-05T21:36:49.227Z,97836.50
2018-11-05T21:39:17.697Z,97834.79
2018-11-05T21:41:46.378Z,97837.63
2018-11-05T21:44:15.439Z,97838.61
2018-11-05T21:46:43.933Z,97835.70
2018-11-05T21:49:12.875Z,97837.91
2018-11-05T21:51:41.822Z,97846.52
2018-11-05T21:54:10.387Z,97843.97
2018-11-05T21:56:38.828Z,97833.98
2018-11-05T21:59:07.891Z,97841.16
2018-11-05T22:01:36.405Z,97830.04
2018-11-05T22:04:05.425Z,97837.23
2018-11-05T22:06:33.985Z,97832.72
2018-11-05T22:09:02.478Z,97844.89
2018-11-05T22:11:30.946Z,97845.84
2018-11-05T22:13:59.415Z,97853.72
2018-11-05T22:16:27.951Z,97852.39
2018-11-05T22:18:56.779Z,97852.37
2018-11-05T22:21:25.251Z,97857.05
2018-11-05T22:23:53.955Z,97850.72
2018-11-05T22:26:22.404Z,97845.73
2018-11-05T22:28:50.891Z,97838.02
2018-11-05T22:31:19.321Z,97844.00
2018-11-05T22:33:48.079Z,97848.34
2018-11-05T22:36:16.813Z,97838.80
2018-11-05T22:38:45.323Z,97840.83
2018-11-05T22:41:14.072Z,97839.88
2018-11-05T22:43:42.592Z,97849.75
2018-11-05T22:46:11.059Z,97850.45
2018-11-05T22:48:39.637Z,97848.28
2018-11-05T22:51:08.160Z,97844.23
2018-11-05T22:53:36.687Z,97846.13
2018-11-05T22:56:05.838Z,97852.32
2018-11-05T22:58:34.300Z,97852.33
2018-11-05T23:01:14.052Z,97848.14
2018-11-05T23:03:42.505Z,97849.66
2018-11-05T23:06:10.975Z,97849.50
2018-11-05T23:08:39.439Z,97852.55
2018-11-05T23:11:07.919Z,97846.78
2018-11-05T23:13:36.408Z,97842.80
2018-11-05T23:16:05.534Z,97839.66
2018-11-05T23:18:34.007Z,97837.48
2018-11-05T23:21:02.472Z,97837.67
2018-11-05T23:23:31.003Z,97843.95
2018-11-05T23:25:59.789Z,97852.31
2018-11-05T23:28:28.259Z,97849.59
2018-11-05T23:30:56.762Z,97844.63
2018-11-05T23:33:25.205Z,97845.83
2018-11-05T23:35:53.684Z,97846.62
2018-11-05T23:38:22.162Z,97852.28
2018-11-05T23:40:50.703Z,97844.34
2018-11-05T23:43:19.146Z,97844.18
2018-11-05T23:45:47.760Z,97841.65
2018-11-05T23:48:16.282Z,97845.73
2018-11-05T23:50:44.786Z,97838.66
2018-11-05T23:53:13.427Z,97842.58
2018-11-05T23:55:41.887Z,97838.02
2018-11-05T23:58:10.460Z,97833.42
